sensor_id;sensor_type;location;lat;lon;timestamp;pressure;altitude;pressure_sealevel;temperature;humidity
28648;BME280;17137;51.494;-0.262;2023-04-22T00:00:13;50489.39;;;-145.72;84.48
28648;BME280;17137;51.494;-0.262;2023-04-22T00:00:43;50483.84;;;-145.72;84.68
28648;BME280;17137;51.494;-0.262;2023-04-22T00:01:13;50486.43;;;-145.72;85.02
28648;BME280;17137;51.494;-0.262;2023-04-22T00:01:44;50484.83;;;-145.72;85.32
28648;BME280;17137;51.494;-0.262;2023-04-22T00:02:14;50484.58;;;-145.72;85.45
28648;BME280;17137;51.494;-0.262;2023-04-22T00:02:44;50492.47;;;-145.72;85.40
28648;BME280;17137;51.494;-0.262;2023-04-22T00:03:14;50499.37;;;-145.72;85.31
28648;BME280;17137;51.494;-0.262;2023-04-22T00:03:45;50502.21;;;-145.72;85.33
28648;BME280;17137;51.494;-0.262;2023-04-22T00:04:15;50490.74;;;-145.72;85.33
28648;BME280;17137;51.494;-0.262;2023-04-22T00:04:45;50488.65;;;-145.72;85.36
28648;BME280;17137;51.494;-0.262;2023-04-22T00:05:15;50497.77;;;-145.72;85.58
28648;BME280;17137;51.494;-0.262;2023-04-22T00:05:46;50493.58;;;-145.72;85.68
28648;BME280;17137;51.494;-0.262;2023-04-22T00:06:16;50495.30;;;-145.72;85.61
28648;BME280;17137;51.494;-0.262;2023-04-22T00:06:47;50489.02;;;-145.72;85.46
28648;BME280;17137;51.494;-0.262;2023-04-22T00:07:17;50488.52;;;-145.72;85.38
28648;BME280;17137;51.494;-0.262;2023-04-22T00:07:48;50487.17;;;-145.72;85.29
28648;BME280;17137;51.494;-0.262;2023-04-22T00:08:18;50487.66;;;-145.72;85.24
28648;BME280;17137;51.494;-0.262;2023-04-22T00:08:48;50485.93;;;-145.72;85.17
28648;BME280;17137;51.494;-0.262;2023-04-22T00:09:19;50501.47;;;-145.72;85.26
28648;BME280;17137;51.494;-0.262;2023-04-22T00:09:49;50492.84;;;-145.72;85.20
28648;BME280;17137;51.494;-0.262;2023-04-22T00:10:19;50506.28;;;-145.72;85.42
28648;BME280;17137;51.494;-0.262;2023-04-22T00:10:50;50494.32;;;-145.72;85.13
28648;BME280;17137;51.494;-0.262;2023-04-22T00:11:20;50491.36;;;-145.72;84.88
28648;BME280;17137;51.494;-0.262;2023-04-22T00:11:50;50480.88;;;-145.72;84.69
28648;BME280;17137;51.494;-0.262;2023-04-22T00:12:20;50480.26;;;-145.72;84.59
28648;BME280;17137;51.494;-0.262;2023-04-22T00:12:51;50484.33;;;-145.72;84.49
28648;BME280;17137;51.494;-0.262;2023-04-22T00:13:21;50495.43;;;-145.72;84.70
28648;BME280;17137;51.494;-0.262;2023-04-22T00:13:52;50482.73;;;-145.72;84.48
28648;BME280;17137;51.494;-0.262;2023-04-22T00:14:22;50489.88;;;-145.72;84.61
28648;BME280;17137;51.494;-0.262;2023-04-22T00:14:52;50485.93;;;-145.72;84.63
28648;BME280;17137;51.494;-0.262;2023-04-22T00:15:22;50483.84;;;-145.72;84.59
28648;BME280;17137;51.494;-0.262;2023-04-22T00:15:53;50497.89;;;-145.72;84.82
28648;BME280;17137;51.494;-0.262;2023-04-22T00:16:23;50488.65;;;-145.72;85.02
28648;BME280;17137;51.494;-0.262;2023-04-22T00:16:53;50491.24;;;-145.72;85.10
28648;BME280;17137;51.494;-0.262;2023-04-22T00:17:24;50496.04;;;-145.72;85.26
28648;BME280;17137;51.494;-0.262;2023-04-22T00:17:54;50495.06;;;-145.72;85.43
28648;BME280;17137;51.494;-0.262;2023-04-22T00:18:24;50494.93;;;-145.72;85.57
28648;BME280;17137;51.494;-0.262;2023-04-22T00:18:55;50486.92;;;-145.72;85.59
28648;BME280;17137;51.494;-0.262;2023-04-22T00:19:25;50482.36;;;-145.72;85.72
28648;BME280;17137;51.494;-0.262;2023-04-22T00:19:55;50499.37;;;-145.72;85.72
28648;BME280;17137;51.494;-0.262;2023-04-22T00:20:26;50493.58;;;-145.72;85.87
28648;BME280;17137;51.494;-0.262;2023-04-22T00:20:56;50506.28;;;-145.72;86.13
28648;BME280;17137;51.494;-0.262;2023-04-22T00:21:27;50507.26;;;-145.72;86.43
28648;BME280;17137;51.494;-0.262;2023-04-22T00:21:57;50497.89;;;-145.72;86.35
28648;BME280;17137;51.494;-0.262;2023-04-22T00:22:27;50496.17;;;-145.72;86.35
28648;BME280;17137;51.494;-0.262;2023-04-22T00:22:57;50496.66;;;-145.72;86.53
28648;BME280;17137;51.494;-0.262;2023-04-22T00:23:28;50497.52;;;-145.72;86.51
28648;BME280;17137;51.494;-0.262;2023-04-22T00:23:58;50507.63;;;-145.72;86.54
28648;BME280;17137;51.494;-0.262;2023-04-22T00:24:28;50501.22;;;-145.72;86.56
28648;BME280;17137;51.494;-0.262;2023-04-22T00:24:59;50514.53;;;-145.72;86.81
28648;BME280;17137;51.494;-0.262;2023-04-22T00:25:29;50495.30;;;-145.72;87.00
28648;BME280;17137;51.494;-0.262;2023-04-22T00:26:00;50518.36;;;-145.72;87.17
28648;BME280;17137;51.494;-0.262;2023-04-22T00:26:30;50507.88;;;-145.72;87.37
28648;BME280;17137;51.494;-0.262;2023-04-22T00:27:00;50510.71;;;-145.72;87.36
28648;BME280;17137;51.494;-0.262;2023-04-22T00:27:31;50496.04;;;-145.72;87.31
28648;BME280;17137;51.494;-0.262;2023-04-22T00:28:01;50504.92;;;-145.72;87.43
28648;BME280;17137;51.494;-0.262;2023-04-22T00:28:32;50505.78;;;-145.72;87.42
28648;BME280;17137;51.494;-0.262;2023-04-22T00:29:02;50508.37;;;-145.72;87.33
28648;BME280;17137;51.494;-0.262;2023-04-22T00:29:32;50505.41;;;-145.72;87.22
28648;BME280;17137;51.494;-0.262;2023-04-22T00:30:03;50504.92;;;-145.72;87.07
28648;BME280;17137;51.494;-0.262;2023-04-22T00:30:34;50503.32;;;-145.72;86.91
28648;BME280;17137;51.494;-0.262;2023-04-22T00:31:04;50499.13;;;-145.72;86.92
28648;BME280;17137;51.494;-0.262;2023-04-22T00:31:34;50504.30;;;-145.72;86.94
28648;BME280;17137;51.494;-0.262;2023-04-22T00:32:05;50498.63;;;-145.72;87.01
28648;BME280;17137;51.494;-0.262;2023-04-22T00:32:35;50495.92;;;-145.72;86.81
28648;BME280;17137;51.494;-0.262;2023-04-22T00:33:06;50491.73;;;-145.72;86.58
28648;BME280;17137;51.494;-0.262;2023-04-22T00:33:36;50497.40;;;-145.72;86.51
28648;BME280;17137;51.494;-0.262;2023-04-22T00:34:06;50505.41;;;-145.72;86.43
28648;BME280;17137;51.494;-0.262;2023-04-22T00:34:37;50499.86;;;-145.72;86.43
28648;BME280;17137;51.494;-0.262;2023-04-22T00:35:07;50483.47;;;-145.72;86.45
28648;BME280;17137;51.494;-0.262;2023-04-22T00:35:37;50505.54;;;-145.72;86.78
28648;BME280;17137;51.494;-0.262;2023-04-22T00:36:08;50490.87;;;-145.72;86.82
28648;BME280;17137;51.494;-0.262;2023-04-22T00:36:38;50492.47;;;-145.72;86.60
28648;BME280;17137;51.494;-0.262;2023-04-22T00:37:08;50494.32;;;-145.72;86.57
28648;BME280;17137;51.494;-0.262;2023-04-22T00:37:39;50513.55;;;-145.72;86.52
28648;BME280;17137;51.494;-0.262;2023-04-22T00:38:09;50501.34;;;-145.72;86.30
28648;BME280;17137;51.494;-0.262;2023-04-22T00:38:40;50507.63;;;-145.72;86.16
28648;BME280;17137;51.494;-0.262;2023-04-22T00:39:14;50499.62;;;-145.72;86.03
28648;BME280;17137;51.494;-0.262;2023-04-22T00:39:44;50500.23;;;-145.72;86.06
28648;BME280;17137;51.494;-0.262;2023-04-22T00:40:14;50493.82;;;-145.72;86.34
28648;BME280;17137;51.494;-0.262;2023-04-22T00:40:44;50500.23;;;-145.72;86.28
28648;BME280;17137;51.494;-0.262;2023-04-22T00:41:15;50513.92;;;-145.72;86.22
28648;BME280;17137;51.494;-0.262;2023-04-22T00:41:45;50496.29;;;-145.72;86.28
28648;BME280;17137;51.494;-0.262;2023-04-22T00:42:16;50501.84;;;-145.72;86.24
28648;BME280;17137;51.494;-0.262;2023-04-22T00:42:49;50512.93;;;-145.72;86.16
28648;BME280;17137;51.494;-0.262;2023-04-22T00:43:19;50513.92;;;-145.72;86.32
28648;BME280;17137;51.494;-0.262;2023-04-22T00:43:50;50510.84;;;-145.72;86.43
28648;BME280;17137;51.494;-0.262;2023-04-22T00:44:21;50500.97;;;-145.72;86.56
28648;BME280;17137;51.494;-0.262;2023-04-22T00:44:52;50503.19;;;-145.72;86.72
28648;BME280;17137;51.494;-0.262;2023-04-22T00:45:23;50507.88;;;-145.72;86.68
28648;BME280;17137;51.494;-0.262;2023-04-22T00:45:56;50512.19;;;-145.72;86.68
28648;BME280;17137;51.494;-0.262;2023-04-22T00:46:26;50515.15;;;-145.72;86.61
28648;BME280;17137;51.494;-0.262;2023-04-22T00:46:58;50509.85;;;-145.72;86.62
28648;BME280;17137;51.494;-0.262;2023-04-22T00:47:29;50515.64;;;-145.72;86.77
28648;BME280;17137;51.494;-0.262;2023-04-22T00:48:00;50522.67;;;-145.72;86.86
28648;BME280;17137;51.494;-0.262;2023-04-22T00:48:31;50512.93;;;-145.72;86.91
28648;BME280;17137;51.494;-0.262;2023-04-22T00:49:01;50505.78;;;-145.72;86.90
28648;BME280;17137;51.494;-0.262;2023-04-22T00:49:34;50505.29;;;-145.72;86.96
28648;BME280;17137;51.494;-0.262;2023-04-22T00:50:06;50510.34;;;-145.72;87.02
28648;BME280;17137;51.494;-0.262;2023-04-22T00:50:36;50503.19;;;-145.72;87.06
28648;BME280;17137;51.494;-0.262;2023-04-22T00:51:07;50509.11;;;-145.72;87.06
28648;BME280;17137;51.494;-0.262;2023-04-22T00:51:37;50518.23;;;-145.72;87.13
28648;BME280;17137;51.494;-0.262;2023-04-22T00:52:07;50503.32;;;-145.72;87.14
28648;BME280;17137;51.494;-0.262;2023-04-22T00:52:38;50508.62;;;-145.72;87.15
28648;BME280;17137;51.494;-0.262;2023-04-22T00:53:08;50507.51;;;-145.72;87.23
28648;BME280;17137;51.494;-0.262;2023-04-22T00:53:39;50517.74;;;-145.72;87.27
28648;BME280;17137;51.494;-0.262;2023-04-22T00:54:09;50499.62;;;-145.72;87.30
28648;BME280;17137;51.494;-0.262;2023-04-22T00:54:39;50507.88;;;-145.72;87.53
28648;BME280;17137;51.494;-0.262;2023-04-22T00:55:10;50514.53;;;-145.72;87.53
28648;BME280;17137;51.494;-0.262;2023-04-22T00:55:41;50529.45;;;-145.72;88.80
28648;BME280;17137;51.494;-0.262;2023-04-22T00:56:12;50517.12;;;-145.72;88.96
28648;BME280;17137;51.494;-0.262;2023-04-22T00:56:42;50516.88;;;-145.72;88.93
28648;BME280;17137;51.494;-0.262;2023-04-22T00:57:13;50524.52;;;-145.72;89.33
28648;BME280;17137;51.494;-0.262;2023-04-22T00:57:44;50527.73;;;-145.72;89.24
28648;BME280;17137;51.494;-0.262;2023-04-22T00:58:16;50522.42;;;-145.72;89.24
28648;BME280;17137;51.494;-0.262;2023-04-22T00:58:46;50534.01;;;-145.72;89.17
28648;BME280;17137;51.494;-0.262;2023-04-22T00:59:17;50529.33;;;-145.72;89.07
28648;BME280;17137;51.494;-0.262;2023-04-22T00:59:47;50525.26;;;-145.72;88.98
28648;BME280;17137;51.494;-0.262;2023-04-22T01:00:19;50518.48;;;-145.72;88.79
28648;BME280;17137;51.494;-0.262;2023-04-22T01:00:49;50525.51;;;-145.72;88.65
28648;BME280;17137;51.494;-0.262;2023-04-22T01:01:20;50518.97;;;-145.72;88.62
28648;BME280;17137;51.494;-0.262;2023-04-22T01:01:52;50528.22;;;-145.72;88.68
28648;BME280;17137;51.494;-0.262;2023-04-22T01:02:23;50518.23;;;-145.72;88.73
28648;BME280;17137;51.494;-0.262;2023-04-22T01:02:54;50520.82;;;-145.72;88.56
28648;BME280;17137;51.494;-0.262;2023-04-22T01:03:26;50531.79;;;-145.72;88.67
28648;BME280;17137;51.494;-0.262;2023-04-22T01:03:57;50522.05;;;-145.72;88.56
28648;BME280;17137;51.494;-0.262;2023-04-22T01:04:27;50522.55;;;-145.72;88.38
28648;BME280;17137;51.494;-0.262;2023-04-22T01:04:58;50513.55;;;-145.72;88.42
28648;BME280;17137;51.494;-0.262;2023-04-22T01:05:30;50512.19;;;-145.72;88.38
28648;BME280;17137;51.494;-0.262;2023-04-22T01:06:00;50519.96;;;-145.72;88.19
28648;BME280;17137;51.494;-0.262;2023-04-22T01:06:31;50501.34;;;-145.72;88.10
28648;BME280;17137;51.494;-0.262;2023-04-22T01:07:03;50518.48;;;-145.72;87.99
28648;BME280;17137;51.494;-0.262;2023-04-22T01:07:33;50506.03;;;-145.72;88.01
28648;BME280;17137;51.494;-0.262;2023-04-22T01:08:04;50510.10;;;-145.72;88.07
28648;BME280;17137;51.494;-0.262;2023-04-22T01:08:34;50508.74;;;-145.72;88.03
28648;BME280;17137;51.494;-0.262;2023-04-22T01:09:05;50517.37;;;-145.72;87.92
28648;BME280;17137;51.494;-0.262;2023-04-22T01:09:36;50513.79;;;-145.72;87.72
28648;BME280;17137;51.494;-0.262;2023-04-22T01:10:07;50511.45;;;-145.72;87.55
28648;BME280;17137;51.494;-0.262;2023-04-22T01:10:37;50511.82;;;-145.72;87.43
28648;BME280;17137;51.494;-0.262;2023-04-22T01:11:08;50499.99;;;-145.72;87.28
28648;BME280;17137;51.494;-0.262;2023-04-22T01:11:38;50519.34;;;-145.72;87.13
28648;BME280;17137;51.494;-0.262;2023-04-22T01:12:09;50510.96;;;-145.72;87.14
28648;BME280;17137;51.494;-0.262;2023-04-22T01:12:39;50511.95;;;-145.72;87.00
28648;BME280;17137;51.494;-0.262;2023-04-22T01:13:09;50509.23;;;-145.72;86.99
28648;BME280;17137;51.494;-0.262;2023-04-22T01:13:40;50503.81;;;-145.72;86.79
28648;BME280;17137;51.494;-0.262;2023-04-22T01:14:10;50492.10;;;-145.72;86.63
28648;BME280;17137;51.494;-0.262;2023-04-22T01:14:41;50506.28;;;-145.72;86.49
28648;BME280;17137;51.494;-0.262;2023-04-22T01:15:11;50513.18;;;-145.72;86.07
28648;BME280;17137;51.494;-0.262;2023-04-22T01:15:41;50515.52;;;-145.72;86.06
28648;BME280;17137;51.494;-0.262;2023-04-22T01:16:12;50522.67;;;-145.72;86.02
28648;BME280;17137;51.494;-0.262;2023-04-22T01:16:42;50519.71;;;-145.72;86.01
28648;BME280;17137;51.494;-0.262;2023-04-22T01:17:15;50513.92;;;-145.72;85.89
28648;BME280;17137;51.494;-0.262;2023-04-22T01:17:45;50505.41;;;-145.72;85.76
28648;BME280;17137;51.494;-0.262;2023-04-22T01:18:16;50496.54;;;-145.72;85.66
28648;BME280;17137;51.494;-0.262;2023-04-22T01:18:47;50503.56;;;-145.72;85.54
28648;BME280;17137;51.494;-0.262;2023-04-22T01:19:18;50505.17;;;-145.72;85.50
28648;BME280;17137;51.494;-0.262;2023-04-22T01:19:48;50507.01;;;-145.72;85.42
28648;BME280;17137;51.494;-0.262;2023-04-22T01:20:18;50510.84;;;-145.72;85.42
28648;BME280;17137;51.494;-0.262;2023-04-22T01:20:49;50519.47;;;-145.72;85.52
28648;BME280;17137;51.494;-0.262;2023-04-22T01:21:19;50513.67;;;-145.72;85.58
28648;BME280;17137;51.494;-0.262;2023-04-22T01:21:50;50519.10;;;-145.72;85.56
28648;BME280;17137;51.494;-0.262;2023-04-22T01:22:22;50508.25;;;-145.72;85.26
28648;BME280;17137;51.494;-0.262;2023-04-22T01:22:54;50503.81;;;-145.72;85.16
28648;BME280;17137;51.494;-0.262;2023-04-22T01:23:25;50509.11;;;-145.72;85.03
28648;BME280;17137;51.494;-0.262;2023-04-22T01:23:55;50511.21;;;-145.72;84.98
28648;BME280;17137;51.494;-0.262;2023-04-22T01:24:26;50506.64;;;-145.72;85.03
28648;BME280;17137;51.494;-0.262;2023-04-22T01:24:57;50507.51;;;-145.72;85.03
28648;BME280;17137;51.494;-0.262;2023-04-22T01:25:27;50505.17;;;-145.72;85.06
28648;BME280;17137;51.494;-0.262;2023-04-22T01:25:58;50510.59;;;-145.72;84.99
28648;BME280;17137;51.494;-0.262;2023-04-22T01:26:29;50510.71;;;-145.72;85.07
28648;BME280;17137;51.494;-0.262;2023-04-22T01:26:59;50499.00;;;-145.72;84.97
28648;BME280;17137;51.494;-0.262;2023-04-22T01:27:30;50507.88;;;-145.72;84.85
28648;BME280;17137;51.494;-0.262;2023-04-22T01:28:01;50503.56;;;-145.72;84.83
28648;BME280;17137;51.494;-0.262;2023-04-22T01:28:31;50511.21;;;-145.72;84.87
28648;BME280;17137;51.494;-0.262;2023-04-22T01:29:04;50519.10;;;-145.72;84.94
28648;BME280;17137;51.494;-0.262;2023-04-22T01:29:36;50516.14;;;-145.72;84.91
28648;BME280;17137;51.494;-0.262;2023-04-22T01:30:08;50508.86;;;-145.72;84.95
28648;BME280;17137;51.494;-0.262;2023-04-22T01:30:40;50513.79;;;-145.72;85.04
28648;BME280;17137;51.494;-0.262;2023-04-22T01:31:11;50515.77;;;-145.72;84.97
28648;BME280;17137;51.494;-0.262;2023-04-22T01:31:41;50514.66;;;-145.72;84.85
28648;BME280;17137;51.494;-0.262;2023-04-22T01:32:11;50511.21;;;-145.72;84.94
28648;BME280;17137;51.494;-0.262;2023-04-22T01:32:42;50512.32;;;-145.72;84.96
28648;BME280;17137;51.494;-0.262;2023-04-22T01:33:14;50502.95;;;-145.72;85.03
28648;BME280;17137;51.494;-0.262;2023-04-22T01:33:45;50517.74;;;-145.72;84.98
28648;BME280;17137;51.494;-0.262;2023-04-22T01:34:15;50520.58;;;-145.72;84.94
28648;BME280;17137;51.494;-0.262;2023-04-22T01:34:46;50523.29;;;-145.72;85.16
28648;BME280;17137;51.494;-0.262;2023-04-22T01:35:16;50518.60;;;-145.72;85.33
28648;BME280;17137;51.494;-0.262;2023-04-22T01:35:46;50506.28;;;-145.72;85.31
28648;BME280;17137;51.494;-0.262;2023-04-22T01:36:17;50517.00;;;-145.72;85.36
28648;BME280;17137;51.494;-0.262;2023-04-22T01:36:47;50512.32;;;-145.72;85.25
28648;BME280;17137;51.494;-0.262;2023-04-22T01:37:18;50521.56;;;-145.72;85.18
28648;BME280;17137;51.494;-0.262;2023-04-22T01:37:48;50509.36;;;-145.72;85.14
28648;BME280;17137;51.494;-0.262;2023-04-22T01:38:20;50525.01;;;-145.72;85.17
28648;BME280;17137;51.494;-0.262;2023-04-22T01:38:50;50520.21;;;-145.72;85.13
28648;BME280;17137;51.494;-0.262;2023-04-22T01:39:20;50515.89;;;-145.72;85.09
28648;BME280;17137;51.494;-0.262;2023-04-22T01:39:51;50512.69;;;-145.72;85.10
28648;BME280;17137;51.494;-0.262;2023-04-22T01:40:22;50516.88;;;-145.72;85.10
28648;BME280;17137;51.494;-0.262;2023-04-22T01:40:53;50519.59;;;-145.72;85.04
28648;BME280;17137;51.494;-0.262;2023-04-22T01:41:24;50511.45;;;-145.72;84.96
28648;BME280;17137;51.494;-0.262;2023-04-22T01:42:24;50515.89;;;-145.72;84.96
28648;BME280;17137;51.494;-0.262;2023-04-22T01:42:55;50514.41;;;-145.72;85.01
28648;BME280;17137;51.494;-0.262;2023-04-22T01:43:25;50520.58;;;-145.72;85.06
28648;BME280;17137;51.494;-0.262;2023-04-22T01:43:57;50514.78;;;-145.72;84.65
28648;BME280;17137;51.494;-0.262;2023-04-22T01:44:29;50509.97;;;-145.72;84.39
28648;BME280;17137;51.494;-0.262;2023-04-22T01:44:59;50521.93;;;-145.72;84.35
28648;BME280;17137;51.494;-0.262;2023-04-22T01:45:29;50522.92;;;-145.72;84.56
28648;BME280;17137;51.494;-0.262;2023-04-22T01:46:00;50515.03;;;-145.72;84.64
28648;BME280;17137;51.494;-0.262;2023-04-22T01:46:32;50518.97;;;-145.72;84.64
28648;BME280;17137;51.494;-0.262;2023-04-22T01:47:02;50516.63;;;-145.72;84.60
28648;BME280;17137;51.494;-0.262;2023-04-22T01:47:32;50518.36;;;-145.72;84.65
28648;BME280;17137;51.494;-0.262;2023-04-22T01:48:03;50536.72;;;-145.72;84.91
28648;BME280;17137;51.494;-0.262;2023-04-22T01:48:34;50534.51;;;-145.72;84.92
28648;BME280;17137;51.494;-0.262;2023-04-22T01:49:05;50531.42;;;-145.72;84.87
28648;BME280;17137;51.494;-0.262;2023-04-22T01:49:35;50525.26;;;-145.72;84.83
28648;BME280;17137;51.494;-0.262;2023-04-22T01:50:06;50521.44;;;-145.72;84.56
28648;BME280;17137;51.494;-0.262;2023-04-22T01:50:36;50518.97;;;-145.72;84.41
28648;BME280;17137;51.494;-0.262;2023-04-22T01:51:07;50519.22;;;-145.72;84.31
28648;BME280;17137;51.494;-0.262;2023-04-22T01:51:37;50521.56;;;-145.72;84.36
28648;BME280;17137;51.494;-0.262;2023-04-22T01:52:07;50526.49;;;-145.72;84.51
28648;BME280;17137;51.494;-0.262;2023-04-22T01:52:38;50537.59;;;-145.72;84.54
28648;BME280;17137;51.494;-0.262;2023-04-22T01:53:08;50517.99;;;-145.72;84.43
28648;BME280;17137;51.494;-0.262;2023-04-22T01:53:38;50528.71;;;-145.72;84.54
28648;BME280;17137;51.494;-0.262;2023-04-22T01:54:09;50534.63;;;-145.72;84.78
28648;BME280;17137;51.494;-0.262;2023-04-22T01:54:40;50526.99;;;-145.72;84.83
28648;BME280;17137;51.494;-0.262;2023-04-22T01:55:11;50537.96;;;-145.72;84.72
28648;BME280;17137;51.494;-0.262;2023-04-22T01:55:42;50533.40;;;-145.72;84.59
28648;BME280;17137;51.494;-0.262;2023-04-22T01:56:12;50519.59;;;-145.72;84.52
28648;BME280;17137;51.494;-0.262;2023-04-22T01:56:49;50518.73;;;-145.72;84.60
28648;BME280;17137;51.494;-0.262;2023-04-22T01:57:19;50529.45;;;-145.72;84.63
28648;BME280;17137;51.494;-0.262;2023-04-22T01:57:49;50528.09;;;-145.72;84.60
28648;BME280;17137;51.494;-0.262;2023-04-22T01:58:20;50521.31;;;-145.72;84.54
28648;BME280;17137;51.494;-0.262;2023-04-22T01:58:50;50533.27;;;-145.72;85.12
28648;BME280;17137;51.494;-0.262;2023-04-22T01:59:21;50530.93;;;-145.72;85.18
28648;BME280;17137;51.494;-0.262;2023-04-22T01:59:51;50526.25;;;-145.72;85.01
28648;BME280;17137;51.494;-0.262;2023-04-22T02:00:21;50549.42;;;-145.72;85.63
28648;BME280;17137;51.494;-0.262;2023-04-22T02:00:51;50541.16;;;-145.72;85.53
28648;BME280;17137;51.494;-0.262;2023-04-22T02:03:25;50535.00;;;-145.72;87.01
28648;BME280;17137;51.494;-0.262;2023-04-22T02:03:56;50541.04;;;-145.72;86.97
28648;BME280;17137;51.494;-0.262;2023-04-22T02:04:26;50541.41;;;-145.72;86.90
28648;BME280;17137;51.494;-0.262;2023-04-22T02:04:56;50532.29;;;-145.72;86.87
28648;BME280;17137;51.494;-0.262;2023-04-22T02:05:27;50532.53;;;-145.72;87.41
28648;BME280;17137;51.494;-0.262;2023-04-22T02:05:57;50539.93;;;-145.72;87.52
28648;BME280;17137;51.494;-0.262;2023-04-22T02:06:27;50534.75;;;-145.72;87.50
28648;BME280;17137;51.494;-0.262;2023-04-22T02:06:58;50535.86;;;-145.72;87.36
28648;BME280;17137;51.494;-0.262;2023-04-22T02:07:28;50544.61;;;-145.72;88.30
28648;BME280;17137;51.494;-0.262;2023-04-22T02:07:58;50540.67;;;-145.72;88.09
28648;BME280;17137;51.494;-0.262;2023-04-22T02:08:29;50535.37;;;-145.72;87.85
28648;BME280;17137;51.494;-0.262;2023-04-22T02:08:59;50533.03;;;-145.72;87.49
28648;BME280;17137;51.494;-0.262;2023-04-22T02:09:29;50545.23;;;-145.72;87.51
28648;BME280;17137;51.494;-0.262;2023-04-22T02:09:59;50517.74;;;-145.72;87.35
28648;BME280;17137;51.494;-0.262;2023-04-22T02:10:30;50538.94;;;-145.72;87.62
28648;BME280;17137;51.494;-0.262;2023-04-22T02:11:01;50545.85;;;-145.72;87.61
28648;BME280;17137;51.494;-0.262;2023-04-22T02:11:31;50545.11;;;-145.72;87.64
28648;BME280;17137;51.494;-0.262;2023-04-22T02:12:01;50541.16;;;-145.72;87.59
28648;BME280;17137;51.494;-0.262;2023-04-22T02:12:31;50535.61;;;-145.72;87.55
28648;BME280;17137;51.494;-0.262;2023-04-22T02:13:02;50537.09;;;-145.72;87.47
28648;BME280;17137;51.494;-0.262;2023-04-22T02:13:36;50542.76;;;-145.72;87.51
28648;BME280;17137;51.494;-0.262;2023-04-22T02:14:06;50537.83;;;-145.72;87.74
28648;BME280;17137;51.494;-0.262;2023-04-22T02:14:37;50538.20;;;-145.72;87.62
28648;BME280;17137;51.494;-0.262;2023-04-22T02:15:08;50549.91;;;-145.72;87.65
28648;BME280;17137;51.494;-0.262;2023-04-22T02:15:39;50545.60;;;-145.72;87.79
28648;BME280;17137;51.494;-0.262;2023-04-22T02:16:09;50544.61;;;-145.72;87.83
28648;BME280;17137;51.494;-0.262;2023-04-22T02:16:40;50543.50;;;-145.72;87.91
28648;BME280;17137;51.494;-0.262;2023-04-22T02:17:10;50545.23;;;-145.72;87.94
28648;BME280;17137;51.494;-0.262;2023-04-22T02:17:41;50547.57;;;-145.72;87.98
28648;BME280;17137;51.494;-0.262;2023-04-22T02:18:12;50543.26;;;-145.72;88.21
28648;BME280;17137;51.494;-0.262;2023-04-22T02:18:42;50542.64;;;-145.72;87.87
28648;BME280;17137;51.494;-0.262;2023-04-22T02:19:12;50547.70;;;-145.72;87.77
28648;BME280;17137;51.494;-0.262;2023-04-22T02:19:42;50554.35;;;-145.72;87.99
28648;BME280;17137;51.494;-0.262;2023-04-22T02:20:13;50551.64;;;-145.72;88.51
28648;BME280;17137;51.494;-0.262;2023-04-22T02:20:43;50544.49;;;-145.72;88.55
28648;BME280;17137;51.494;-0.262;2023-04-22T02:21:13;50548.68;;;-145.72;88.71
28648;BME280;17137;51.494;-0.262;2023-04-22T02:21:43;50562.86;;;-145.72;88.91
28648;BME280;17137;51.494;-0.262;2023-04-22T02:22:14;50540.92;;;-145.72;88.64
28648;BME280;17137;51.494;-0.262;2023-04-22T02:22:44;50542.89;;;-145.72;88.54
28648;BME280;17137;51.494;-0.262;2023-04-22T02:23:15;50550.90;;;-145.72;88.77
28648;BME280;17137;51.494;-0.262;2023-04-22T02:23:45;50550.78;;;-145.72;88.83
28648;BME280;17137;51.494;-0.262;2023-04-22T02:24:20;50537.09;;;-145.72;88.63
28648;BME280;17137;51.494;-0.262;2023-04-22T02:24:51;50534.14;;;-145.72;88.40
28648;BME280;17137;51.494;-0.262;2023-04-22T02:25:21;50547.82;;;-145.72;88.49
28648;BME280;17137;51.494;-0.262;2023-04-22T02:25:52;50544.74;;;-145.72;88.38
28648;BME280;17137;51.494;-0.262;2023-04-22T02:26:23;50535.98;;;-145.72;88.27
28648;BME280;17137;51.494;-0.262;2023-04-22T02:26:53;50544.74;;;-145.72;89.00
28648;BME280;17137;51.494;-0.262;2023-04-22T02:27:23;50564.71;;;-145.72;89.52
28648;BME280;17137;51.494;-0.262;2023-04-22T02:27:53;50567.17;;;-145.72;90.28
28648;BME280;17137;51.494;-0.262;2023-04-22T02:28:24;50563.11;;;-145.72;90.56
28648;BME280;17137;51.494;-0.262;2023-04-22T02:28:54;50556.82;;;-145.72;90.07
28648;BME280;17137;51.494;-0.262;2023-04-22T02:29:25;50546.46;;;-145.72;89.55
28648;BME280;17137;51.494;-0.262;2023-04-22T02:29:55;50550.04;;;-145.72;89.18
28648;BME280;17137;51.494;-0.262;2023-04-22T02:30:26;50555.71;;;-145.72;89.14
28648;BME280;17137;51.494;-0.262;2023-04-22T02:30:56;50558.42;;;-145.72;89.07
28648;BME280;17137;51.494;-0.262;2023-04-22T02:31:26;50552.38;;;-145.72;89.22
28648;BME280;17137;51.494;-0.262;2023-04-22T02:31:57;50558.05;;;-145.72;88.99
28648;BME280;17137;51.494;-0.262;2023-04-22T02:32:28;50547.57;;;-145.72;88.88
28648;BME280;17137;51.494;-0.262;2023-04-22T02:32:58;50556.57;;;-145.72;89.19
28648;BME280;17137;51.494;-0.262;2023-04-22T02:33:28;50552.75;;;-145.72;89.27
28648;BME280;17137;51.494;-0.262;2023-04-22T02:33:59;50544.24;;;-145.72;89.39
28648;BME280;17137;51.494;-0.262;2023-04-22T02:34:29;50544.61;;;-145.72;89.59
28648;BME280;17137;51.494;-0.262;2023-04-22T02:34:59;50566.19;;;-145.72;89.96
28648;BME280;17137;51.494;-0.262;2023-04-22T02:35:29;50556.45;;;-145.72;90.10
28648;BME280;17137;51.494;-0.262;2023-04-22T02:36:00;50554.23;;;-145.72;89.67
28648;BME280;17137;51.494;-0.262;2023-04-22T02:36:30;50545.35;;;-145.72;89.20
28648;BME280;17137;51.494;-0.262;2023-04-22T02:37:00;50542.76;;;-145.72;89.14
28648;BME280;17137;51.494;-0.262;2023-04-22T02:37:30;50556.70;;;-145.72;89.21
28648;BME280;17137;51.494;-0.262;2023-04-22T02:38:01;50536.72;;;-145.72;89.28
28648;BME280;17137;51.494;-0.262;2023-04-22T02:38:31;50547.20;;;-145.72;89.16